createdAt,value
2023-03-11T00:01:42.657Z,19.8
2023-03-11T00:04:10.917Z,21.9
2023-03-11T00:06:39.175Z,21.5
2023-03-11T00:09:07.430Z,21.8
2023-03-11T00:12:50.426Z,23.2
2023-03-11T00:14:03.967Z,23.3
2023-03-11T00:16:32.228Z,25.1
2023-03-11T00:19:00.486Z,24.5
2023-03-11T00:21:28.740Z,25
2023-03-11T00:23:57.004Z,24.1
2023-03-11T00:26:25.259Z,26.2
2023-03-11T00:28:53.519Z,25
2023-03-11T00:31:21.774Z,24.5
2023-03-11T00:33:50.031Z,25.8
2023-03-11T00:36:18.290Z,24.3
2023-03-11T00:37:33.021Z,26.9
2023-03-11T00:38:46.565Z,26.1
2023-03-11T00:43:43.083Z,26.3
2023-03-11T00:46:11.340Z,25.2
2023-03-11T00:48:39.593Z,27.1
2023-03-11T00:51:07.857Z,27.6
2023-03-11T00:53:36.111Z,27.6
2023-03-11T00:56:04.373Z,26.5
2023-03-11T00:58:32.623Z,25.9
2023-03-11T01:01:00.884Z,26.1
2023-03-11T01:02:15.620Z,27.3
2023-03-11T01:03:29.158Z,27.4
2023-03-11T01:05:57.425Z,25.9
2023-03-11T01:08:25.680Z,25.4
2023-03-11T01:10:53.938Z,25.7
2023-03-11T01:15:50.447Z,27
2023-03-11T01:18:18.704Z,25.9
2023-03-11T01:20:46.965Z,25
2023-03-11T01:23:15.221Z,24.7
2023-03-11T01:25:43.485Z,24.8
2023-03-11T01:26:58.219Z,26.3
2023-03-11T01:28:11.759Z,25.2
2023-03-11T01:30:40.019Z,24.7
2023-03-11T01:33:08.279Z,23.8
2023-03-11T01:35:36.536Z,23.7
2023-03-11T01:38:04.787Z,23.5
2023-03-11T01:40:33.049Z,22.9
2023-03-11T01:43:01.304Z,23.7
2023-03-11T01:47:57.822Z,25.4
2023-03-11T01:50:26.079Z,22.5
2023-03-11T01:51:40.820Z,24.9
2023-03-11T01:52:54.362Z,24.3
2023-03-11T01:55:22.620Z,24.9
2023-03-11T01:57:50.871Z,24.8
2023-03-11T02:00:19.130Z,24.9
2023-03-11T02:02:47.393Z,25.2
2023-03-11T02:05:15.645Z,25.3
2023-03-11T02:07:43.903Z,26.4
2023-03-11T02:10:12.166Z,25.2
2023-03-11T02:12:40.426Z,24.6
2023-03-11T02:15:08.684Z,24.6
2023-03-11T02:17:36.943Z,24.6
2023-03-11T02:20:05.196Z,24.1
2023-03-11T02:22:33.460Z,24
2023-03-11T02:25:01.715Z,24.4
2023-03-11T02:27:29.974Z,24.8
2023-03-11T02:29:58.231Z,23.8
2023-03-11T02:32:26.497Z,23.5
2023-03-11T02:34:54.748Z,23.4
2023-03-11T02:37:23.001Z,24
2023-03-11T02:39:51.262Z,24.5
2023-03-11T02:41:06.006Z,23.8
2023-03-11T02:42:19.555Z,22
2023-03-11T02:44:47.813Z,22.8
2023-03-11T02:49:44.330Z,22
2023-03-11T02:52:12.590Z,20.9
2023-03-11T02:54:40.840Z,20.5
2023-03-11T02:57:09.102Z,19.1
2023-03-11T02:59:37.355Z,17.8
2023-03-11T03:02:05.618Z,18
2023-03-11T03:04:33.870Z,16.1
2023-03-11T03:05:48.607Z,17.2
2023-03-11T03:07:02.155Z,16.3
2023-03-11T03:09:30.411Z,17.5
2023-03-11T03:11:58.672Z,17.3
2023-03-11T03:14:26.922Z,16.2
2023-03-11T03:16:55.182Z,16.4
2023-03-11T03:21:51.696Z,17.1
2023-03-11T03:24:19.956Z,17
2023-03-11T03:26:48.220Z,18.7
2023-03-11T03:29:16.478Z,18.5
2023-03-11T03:30:31.205Z,17.1
2023-03-11T03:31:44.750Z,18.7
2023-03-11T03:34:13.007Z,18.5
2023-03-11T03:36:41.264Z,18.4
2023-03-11T03:39:09.526Z,19.1
2023-03-11T03:41:37.781Z,17.4
2023-03-11T03:44:06.040Z,18.3
2023-03-11T03:46:34.301Z,19.1
2023-03-11T03:49:02.559Z,18.6
2023-03-11T03:53:59.079Z,17
2023-03-11T03:55:13.804Z,17.7
2023-03-11T03:56:27.344Z,17.4
2023-03-11T03:58:55.606Z,16.9
2023-03-11T04:01:23.866Z,17.3
2023-03-11T04:03:52.122Z,16.9
2023-03-11T04:06:20.378Z,17.2
2023-03-11T04:08:48.641Z,16.5
2023-03-11T04:11:16.891Z,17.5
2023-03-11T04:13:45.152Z,17.4
2023-03-11T04:16:13.412Z,15.9
2023-03-11T04:18:41.666Z,16.8
2023-03-11T04:19:56.402Z,17
2023-03-11T04:23:38.437Z,16.8
2023-03-11T04:26:06.695Z,16.8
2023-03-11T04:28:34.956Z,16
2023-03-11T04:31:03.211Z,16
2023-03-11T04:33:31.470Z,17.1
2023-03-11T04:35:59.723Z,17.1
2023-03-11T04:38:27.982Z,15.5
2023-03-11T04:40:56.237Z,16.5
2023-03-11T04:44:39.234Z,16.6
2023-03-11T04:45:52.775Z,16.8
2023-03-11T04:48:21.034Z,17.1
2023-03-11T04:50:49.292Z,16.2
2023-03-11T04:55:45.806Z,17.4
2023-03-11T04:58:14.066Z,17.3
2023-03-11T05:00:42.320Z,15.8
2023-03-11T05:03:10.575Z,17.9
2023-03-11T05:05:38.838Z,17.4
2023-03-11T05:08:07.093Z,18.2
2023-03-11T05:09:21.822Z,16.6
2023-03-11T05:10:35.374Z,17.4
2023-03-11T05:13:03.625Z,18.2
2023-03-11T05:15:31.889Z,17.1
2023-03-11T05:18:00.143Z,16.5
2023-03-11T05:20:28.399Z,15.4
2023-03-11T05:22:56.657Z,17.3
2023-03-11T05:27:53.173Z,15.9
2023-03-11T05:30:21.427Z,15
2023-03-11T05:32:49.686Z,16.7
2023-03-11T05:34:04.420Z,16.5
2023-03-11T05:35:17.964Z,16.6
2023-03-11T05:37:46.227Z,15.9
2023-03-11T05:40:14.484Z,14.7
2023-03-11T05:42:42.737Z,15.8
2023-03-11T05:45:10.999Z,16.1
2023-03-11T05:47:39.249Z,16.3
2023-03-11T05:50:07.516Z,15.1
2023-03-11T05:52:35.765Z,15.1
2023-03-11T05:55:04.031Z,15.3
2023-03-11T05:58:47.013Z,15.7
2023-03-11T06:00:00.557Z,14.2
2023-03-11T06:02:28.816Z,14.2
2023-03-11T06:04:57.081Z,14.7
2023-03-11T06:07:25.334Z,16.1
2023-03-11T06:09:53.594Z,15.1
2023-03-11T06:12:21.846Z,15.4
2023-03-11T06:14:50.111Z,14.4
2023-03-11T06:17:18.361Z,14.3
2023-03-11T06:19:46.622Z,14.3
2023-03-11T06:22:14.881Z,15
2023-03-11T06:23:29.618Z,15
2023-03-11T06:24:43.154Z,14.4
2023-03-11T06:29:39.677Z,14.6
2023-03-11T06:32:07.925Z,14.3
2023-03-11T06:34:36.185Z,13.8
2023-03-11T06:37:04.446Z,16.5
2023-03-11T06:39:32.707Z,15.6
2023-03-11T06:42:00.963Z,13.9
2023-03-11T06:44:29.222Z,15.6
2023-03-11T06:46:57.473Z,14.7
2023-03-11T06:48:12.211Z,13.8
2023-03-11T06:49:25.755Z,12.8
2023-03-11T06:51:54.006Z,13.1
2023-03-11T06:54:22.269Z,13.3
2023-03-11T06:56:50.522Z,12.9
2023-03-11T07:01:47.040Z,12.7
2023-03-11T07:04:15.300Z,13
2023-03-11T07:06:43.553Z,14.2
2023-03-11T07:09:11.817Z,14.5
2023-03-11T07:11:40.071Z,14
2023-03-11T07:12:54.802Z,13.7
2023-03-11T07:14:08.348Z,17.3
2023-03-11T07:16:36.610Z,20.9
2023-03-11T07:19:04.862Z,18.1
2023-03-11T07:21:33.126Z,15.1
2023-03-11T07:24:01.380Z,15
2023-03-11T07:26:29.634Z,13.1
2023-03-11T07:28:57.895Z,14.1
2023-03-11T07:33:54.414Z,13.8
2023-03-11T07:36:22.665Z,14.3
2023-03-11T07:37:37.401Z,13.4
2023-03-11T07:38:50.945Z,12.2
2023-03-11T07:41:19.207Z,12.7
2023-03-11T07:43:47.463Z,12.9
2023-03-11T07:46:15.714Z,14
2023-03-11T07:48:43.976Z,12.7
2023-03-11T07:51:12.228Z,12.8
2023-03-11T07:53:40.495Z,13
2023-03-11T07:56:08.747Z,11.7
2023-03-11T07:58:37.005Z,11.7
2023-03-11T08:01:05.265Z,12
2023-03-11T08:03:33.527Z,11.3
2023-03-11T08:06:01.785Z,11
2023-03-11T08:08:30.044Z,10.9
2023-03-11T08:10:58.300Z,10.4
2023-03-11T08:13:26.559Z,10.9
2023-03-11T08:15:54.818Z,10.4
2023-03-11T08:18:23.065Z,9.6
2023-03-11T08:20:51.329Z,9.3
2023-03-11T08:23:19.582Z,7.7
2023-03-11T08:25:47.845Z,7.1
2023-03-11T08:27:02.590Z,6.4
2023-03-11T08:28:16.132Z,6
2023-03-11T08:30:44.393Z,6.3
2023-03-11T08:35:40.910Z,5.4
2023-03-11T08:38:09.161Z,5.6
2023-03-11T08:40:37.420Z,5.4
2023-03-11T08:43:05.676Z,5
2023-03-11T08:45:33.934Z,4.6
2023-03-11T08:48:02.199Z,4.4
2023-03-11T08:50:30.451Z,4.3
2023-03-11T08:51:45.190Z,4.3
2023-03-11T08:52:58.725Z,4.1
2023-03-11T08:55:26.989Z,4.1
2023-03-11T08:57:55.247Z,3.9
2023-03-11T09:00:23.504Z,4.2
2023-03-11T09:02:51.757Z,3.8
2023-03-11T09:07:48.268Z,3.9
2023-03-11T09:10:16.526Z,3.9
2023-03-11T09:12:44.787Z,3.8
2023-03-11T09:15:13.039Z,3.9
2023-03-11T09:16:27.772Z,3.9
2023-03-11T09:17:41.316Z,3.5
2023-03-11T09:20:09.579Z,3.5
2023-03-11T09:22:37.830Z,3.3
2023-03-11T09:25:06.085Z,3.5
2023-03-11T09:27:34.346Z,3.2
2023-03-11T09:30:02.615Z,3.6
2023-03-11T09:32:30.865Z,3.4
2023-03-11T09:34:59.115Z,3.3
2023-03-11T09:39:55.632Z,3.3
2023-03-11T09:41:10.363Z,3.5
2023-03-11T09:42:23.909Z,3.1
2023-03-11T09:44:52.163Z,3.1
2023-03-11T09:47:20.421Z,3.1
2023-03-11T09:49:48.685Z,2.9
2023-03-11T09:52:16.939Z,3.4
2023-03-11T09:54:45.194Z,3.4
2023-03-11T09:57:13.451Z,3.3
2023-03-11T09:59:41.710Z,3.3
2023-03-11T10:02:09.968Z,3
2023-03-11T10:04:38.220Z,3.7
2023-03-11T10:05:52.959Z,3.5
2023-03-11T10:09:34.986Z,3.8
2023-03-11T10:12:03.250Z,3.6
2023-03-11T10:14:31.502Z,3.4
2023-03-11T10:16:59.764Z,3.1
2023-03-11T10:19:28.016Z,3.5
2023-03-11T10:21:56.277Z,3.2
2023-03-11T10:24:24.529Z,4
2023-03-11T10:26:52.786Z,4.2
2023-03-11T10:29:21.058Z,3.7
2023-03-11T10:30:35.779Z,4
2023-03-11T10:31:49.325Z,4
2023-03-11T10:34:17.583Z,3.4
2023-03-11T10:36:45.843Z,3.5
2023-03-11T10:41:42.350Z,3.3
2023-03-11T10:44:10.611Z,2.9
2023-03-11T10:46:38.872Z,2.8
2023-03-11T10:49:07.135Z,3
2023-03-11T10:51:35.385Z,2.9
2023-03-11T10:54:03.641Z,2.9
2023-03-11T10:55:18.369Z,2.9
2023-03-11T10:56:31.917Z,3.1
2023-03-11T10:59:00.173Z,3.9
2023-03-11T11:01:28.429Z,3.2
2023-03-11T11:03:56.687Z,3.1
2023-03-11T11:06:24.945Z,3
2023-03-11T11:08:53.203Z,3.2
2023-03-11T11:13:49.713Z,3.1
2023-03-11T11:16:17.969Z,3.5
2023-03-11T11:18:46.227Z,3.6
2023-03-11T11:20:00.974Z,3.2
2023-03-11T11:21:14.500Z,3.4
2023-03-11T11:23:42.765Z,3.3
2023-03-11T11:26:11.016Z,3.3
2023-03-11T11:28:39.276Z,3.4
2023-03-11T11:31:07.536Z,3.4
2023-03-11T11:33:35.785Z,3.7
2023-03-11T11:36:04.046Z,3.1
2023-03-11T11:38:32.301Z,3
2023-03-11T11:41:00.555Z,3
2023-03-11T11:44:43.547Z,3.6
2023-03-11T11:45:57.091Z,3
2023-03-11T11:48:25.347Z,2.5
2023-03-11T11:50:53.607Z,2.6
2023-03-11T11:53:21.866Z,3.4
2023-03-11T11:55:50.121Z,2.6
2023-03-11T11:58:18.379Z,2.8
2023-03-11T12:00:46.637Z,2.5
2023-03-11T12:05:43.143Z,2.9
2023-03-11T12:08:11.399Z,2.8
2023-03-11T12:09:26.139Z,2.3
2023-03-11T12:10:39.677Z,2.4
2023-03-11T12:15:36.195Z,2.7
2023-03-11T12:18:04.455Z,2.2
2023-03-11T12:20:32.704Z,2.7
2023-03-11T12:23:00.962Z,2.3
2023-03-11T12:25:29.224Z,2
2023-03-11T12:27:57.477Z,1.8
2023-03-11T12:30:25.733Z,2.1
2023-03-11T12:32:53.988Z,2
2023-03-11T12:34:08.728Z,1.5
2023-03-11T12:35:22.264Z,1.6
2023-03-11T12:37:50.527Z,1.3
2023-03-11T12:40:18.779Z,1.2
2023-03-11T12:42:47.039Z,1.2
2023-03-11T12:47:43.554Z,1.5
2023-03-11T12:50:11.807Z,1.6
2023-03-11T12:52:40.071Z,1.4
2023-03-11T12:55:08.319Z,1.1
2023-03-11T12:57:36.580Z,1.3
2023-03-11T12:58:51.313Z,1.6
2023-03-11T13:00:04.852Z,1.3
2023-03-11T13:02:33.112Z,1.6
2023-03-11T13:05:01.370Z,1.4
2023-03-11T13:07:29.626Z,1.4
2023-03-11T13:09:57.886Z,1.2
2023-03-11T13:14:54.397Z,1.2
2023-03-11T13:19:50.907Z,1.1
2023-03-11T13:22:19.167Z,1.5
2023-03-11T13:23:33.897Z,1
2023-03-11T13:24:47.444Z,0.9
2023-03-11T13:27:15.701Z,1
2023-03-11T13:29:43.956Z,1
2023-03-11T13:32:12.214Z,1.3
2023-03-11T13:34:40.474Z,0.9
2023-03-11T13:37:08.723Z,1.1
2023-03-11T13:39:36.986Z,0.9
2023-03-11T13:42:05.244Z,1
2023-03-11T13:44:33.502Z,1.3
2023-03-11T13:47:01.758Z,1
2023-03-11T13:49:30.012Z,1
2023-03-11T13:51:58.276Z,1.2
2023-03-11T13:54:26.528Z,1.2
2023-03-11T13:56:54.787Z,1.2
2023-03-11T13:59:23.047Z,1
2023-03-11T14:01:51.297Z,0.7
2023-03-11T14:04:19.557Z,1.1
2023-03-11T14:06:47.825Z,1.3
2023-03-11T14:09:16.068Z,1.4
2023-03-11T14:11:44.326Z,1.2
2023-03-11T14:12:59.080Z,1.1
2023-03-11T14:14:12.618Z,1.2
2023-03-11T14:16:40.882Z,1
2023-03-11T14:21:37.395Z,1.1
2023-03-11T14:24:05.648Z,1.2
2023-03-11T14:26:33.901Z,1.1
2023-03-11T14:29:02.165Z,1
2023-03-11T14:33:58.678Z,1.1
2023-03-11T14:36:26.931Z,0.8
2023-03-11T14:37:41.667Z,0.9
2023-03-11T14:38:55.212Z,0.9
2023-03-11T14:41:23.465Z,0.9
2023-03-11T14:43:51.720Z,1
2023-03-11T14:46:19.976Z,0.7
2023-03-11T14:48:48.235Z,1.2
2023-03-11T14:53:44.745Z,0.9
2023-03-11T14:56:13.005Z,1.1
2023-03-11T14:58:41.263Z,1
2023-03-11T15:01:09.516Z,0.8
2023-03-11T15:02:24.249Z,1.2
2023-03-11T15:03:37.798Z,1.2
2023-03-11T15:06:06.056Z,1
2023-03-11T15:08:34.314Z,0.9
2023-03-11T15:11:02.570Z,0.9
2023-03-11T15:13:30.826Z,1.2
2023-03-11T15:15:59.081Z,1.1
2023-03-11T15:18:27.336Z,0.9
2023-03-11T15:20:55.596Z,1.3
2023-03-11T15:25:52.103Z,1.1
2023-03-11T15:27:06.842Z,1.2
2023-03-11T15:28:20.383Z,1.1
2023-03-11T15:30:48.638Z,1.1
2023-03-11T15:33:16.897Z,0.9
2023-03-11T15:35:45.149Z,1.4
2023-03-11T15:38:13.412Z,1.2
2023-03-11T15:40:41.665Z,1.1
2023-03-11T15:43:09.929Z,1.4
2023-03-11T15:45:38.184Z,0.7
2023-03-11T15:48:06.438Z,1
2023-03-11T15:50:34.700Z,1
2023-03-11T15:51:49.424Z,1.1
2023-03-11T15:55:31.465Z,0.8
2023-03-11T15:57:59.720Z,1.2
2023-03-11T16:00:27.979Z,1
2023-03-11T16:02:56.239Z,1
2023-03-11T16:05:24.489Z,0.9
2023-03-11T16:07:52.754Z,1.4
2023-03-11T16:10:21.010Z,1.2
2023-03-11T16:12:49.274Z,1.2
2023-03-11T16:15:17.522Z,1.3
2023-03-11T16:16:32.258Z,1.2
2023-03-11T16:17:45.798Z,1.4
2023-03-11T16:20:14.060Z,1.2
2023-03-11T16:22:42.317Z,1.4
2023-03-11T16:27:38.829Z,1.5
2023-03-11T16:30:07.087Z,1.4
2023-03-11T16:32:35.343Z,1.6
2023-03-11T16:35:03.603Z,1.7
2023-03-11T16:37:31.853Z,1.6
2023-03-11T16:40:00.113Z,1.5
2023-03-11T16:41:14.847Z,1.5
2023-03-11T16:42:28.393Z,1.4
2023-03-11T16:44:56.650Z,1.5
2023-03-11T16:47:24.912Z,1.3
2023-03-11T16:49:53.165Z,1.5
2023-03-11T16:52:21.418Z,1.9
2023-03-11T16:54:49.681Z,1.5
2023-03-11T16:59:46.192Z,1.7
2023-03-11T17:02:14.455Z,1.3
2023-03-11T17:04:42.714Z,2
2023-03-11T17:05:57.445Z,2
2023-03-11T17:07:10.989Z,1.7
2023-03-11T17:09:39.245Z,1.6
2023-03-11T17:12:07.502Z,2
2023-03-11T17:14:35.757Z,1.6
2023-03-11T17:17:04.021Z,1.5
2023-03-11T17:19:32.279Z,2.1
2023-03-11T17:22:00.531Z,2
2023-03-11T17:24:28.786Z,1.7
2023-03-11T17:26:57.049Z,1.6
2023-03-11T17:30:40.035Z,2.1
2023-03-11T17:31:53.579Z,1.8
2023-03-11T17:34:21.837Z,2.1
2023-03-11T17:36:50.092Z,1.7
2023-03-11T17:39:18.350Z,2.2
2023-03-11T17:41:46.615Z,2.2
2023-03-11T17:44:14.870Z,2
2023-03-11T17:46:43.126Z,2.1
2023-03-11T17:49:11.382Z,1.9
2023-03-11T17:51:39.640Z,1.7
2023-03-11T17:54:07.909Z,1.7
2023-03-11T17:55:22.628Z,1.9
2023-03-11T17:56:36.175Z,1.8
2023-03-11T18:01:32.688Z,2.3
2023-03-11T18:04:00.947Z,2.2
2023-03-11T18:06:29.205Z,2.7
2023-03-11T18:08:57.462Z,2.2
2023-03-11T18:11:25.720Z,2.7
2023-03-11T18:13:53.979Z,2.5
2023-03-11T18:16:22.242Z,2.4
2023-03-11T18:18:50.493Z,2.5
2023-03-11T18:20:05.225Z,2.4
2023-03-11T18:21:18.773Z,2.4
2023-03-11T18:23:47.029Z,2.6
2023-03-11T18:26:15.293Z,2.5
2023-03-11T18:28:43.546Z,2.4
2023-03-11T18:33:40.060Z,2.5
2023-03-11T18:36:08.317Z,2.2
2023-03-11T18:38:36.578Z,2.3
2023-03-11T18:41:04.838Z,2.6
2023-03-11T18:43:33.090Z,2.6
2023-03-11T18:44:47.824Z,2.3
2023-03-11T18:46:01.368Z,2.3
2023-03-11T18:48:29.622Z,2.1
2023-03-11T18:50:57.885Z,2.3
2023-03-11T18:53:26.140Z,2.1
2023-03-11T18:55:54.395Z,2.4
2023-03-11T18:58:22.657Z,2.6
2023-03-11T19:00:50.909Z,2.4
2023-03-11T19:05:47.420Z,3
2023-03-11T19:08:15.685Z,2.2
2023-03-11T19:09:30.468Z,1.8
2023-03-11T19:10:43.954Z,1.8
2023-03-11T19:13:12.218Z,2.2
2023-03-11T19:15:40.477Z,1.9
2023-03-11T19:18:08.730Z,2.1
2023-03-11T19:20:36.985Z,1.8
2023-03-11T19:23:05.239Z,2.4
2023-03-11T19:25:33.496Z,2.1
2023-03-11T19:28:01.759Z,2.3
2023-03-11T19:30:30.016Z,2.4
2023-03-11T19:32:58.272Z,2.3
2023-03-11T19:35:26.532Z,2.4
2023-03-11T19:37:54.784Z,2.2
2023-03-11T19:40:23.040Z,2.1
2023-03-11T19:42:51.297Z,2.1
2023-03-11T19:45:19.561Z,2.5
2023-03-11T19:47:47.821Z,2.1
2023-03-11T19:50:16.074Z,2.3
2023-03-11T19:52:44.331Z,2.2
2023-03-11T19:55:12.591Z,2.3
2023-03-11T19:57:40.845Z,2.1
2023-03-11T19:58:55.595Z,2.5
2023-03-11T20:00:09.140Z,2.5
2023-03-11T20:02:37.393Z,3
2023-03-11T20:07:33.906Z,3.1
2023-03-11T20:10:02.170Z,3.2
2023-03-11T20:12:30.423Z,3.4
2023-03-11T20:14:58.677Z,3.3
2023-03-11T20:17:26.941Z,3.6
2023-03-11T20:19:55.193Z,3.5
2023-03-11T20:22:23.453Z,3.3
2023-03-11T20:23:38.185Z,3.5
2023-03-11T20:24:51.733Z,3.1
2023-03-11T20:27:19.983Z,3.1
2023-03-11T20:29:48.238Z,3.1
2023-03-11T20:32:16.504Z,3.5
2023-03-11T20:34:44.759Z,3.5
2023-03-11T20:39:41.269Z,3.2
2023-03-11T20:42:09.524Z,3.3
2023-03-11T20:44:37.788Z,4
2023-03-11T20:47:06.042Z,3.2
2023-03-11T20:48:20.774Z,3.4
2023-03-11T20:49:34.318Z,3.4
2023-03-11T20:52:02.579Z,3.8
2023-03-11T20:54:30.830Z,4.2
2023-03-11T20:56:59.086Z,3.7
2023-03-11T20:59:27.350Z,3.5
2023-03-11T21:01:55.603Z,2.8
2023-03-11T21:04:23.863Z,3.3
2023-03-11T21:06:52.118Z,3.5
2023-03-11T21:11:48.636Z,3.8
2023-03-11T21:13:03.363Z,4.9
2023-03-11T21:14:16.909Z,4
2023-03-11T21:16:45.171Z,3.9
2023-03-11T21:19:13.427Z,4.1
2023-03-11T21:21:41.677Z,3.9
2023-03-11T21:24:09.938Z,4.1
2023-03-11T21:26:38.191Z,4.1
2023-03-11T21:29:06.455Z,4.6
2023-03-11T21:31:34.706Z,3.7
2023-03-11T21:34:02.964Z,4.8
2023-03-11T21:36:31.225Z,4.1
2023-03-11T21:37:45.960Z,5
2023-03-11T21:41:27.992Z,5.1
2023-03-11T21:43:56.249Z,4.3
2023-03-11T21:46:24.504Z,4.9
2023-03-11T21:48:52.763Z,5
2023-03-11T21:51:21.022Z,4.6
2023-03-11T21:53:49.276Z,4.6
2023-03-11T21:56:17.528Z,4.7
2023-03-11T21:58:45.790Z,4.1
2023-03-11T22:01:14.046Z,4.3
2023-03-11T22:02:28.779Z,4.5
2023-03-11T22:03:42.323Z,4.6
2023-03-11T22:06:10.585Z,4.5
2023-03-11T22:08:38.843Z,4.7
2023-03-11T22:13:35.355Z,4.7
2023-03-11T22:16:03.611Z,4.3
2023-03-11T22:18:31.871Z,3.9
2023-03-11T22:21:00.127Z,3.7
2023-03-11T22:23:28.385Z,4.1
2023-03-11T22:25:56.640Z,3.8
2023-03-11T22:27:11.378Z,4.1
2023-03-11T22:28:24.914Z,3.9
2023-03-11T22:30:53.177Z,3.8
2023-03-11T22:33:21.436Z,3.9
2023-03-11T22:35:49.690Z,3.6
2023-03-11T22:38:17.948Z,3.5
2023-03-11T22:45:42.723Z,3.9
2023-03-11T22:48:10.976Z,3.7
2023-03-11T22:50:39.236Z,4.2
2023-03-11T22:51:53.968Z,4.3
2023-03-11T22:53:07.514Z,3.7
2023-03-11T22:55:35.771Z,3.7
2023-03-11T22:58:04.024Z,3.3
2023-03-11T23:00:32.278Z,3.6
2023-03-11T23:03:00.537Z,2.9
2023-03-11T23:05:28.799Z,3.4
2023-03-11T23:07:57.052Z,2.7
2023-03-11T23:10:25.310Z,3
2023-03-11T23:12:53.572Z,2.8
2023-03-11T23:16:36.562Z,2.7
2023-03-11T23:17:50.100Z,2.4
2023-03-11T23:20:18.355Z,2.9
2023-03-11T23:22:46.615Z,2.9
2023-03-11T23:25:14.877Z,2.8
2023-03-11T23:27:43.135Z,3
2023-03-11T23:30:11.395Z,2.7
2023-03-11T23:32:39.645Z,3
2023-03-11T23:35:07.901Z,2.9
2023-03-11T23:37:36.160Z,2.8
2023-03-11T23:40:04.420Z,3
2023-03-11T23:41:19.152Z,2.9
2023-03-11T23:42:32.700Z,2.8
2023-03-11T23:47:29.216Z,3.1
2023-03-11T23:49:57.464Z,3.6
2023-03-11T23:52:25.726Z,3.3
2023-03-11T23:54:53.989Z,3.4
2023-03-11T23:57:22.244Z,3
2023-03-11T23:59:50.495Z,3.6
